createdAt,value
2019-01-30T00:02:17.513Z,93.50
2019-01-30T00:04:47.817Z,92.90
2019-01-30T00:07:18.041Z,92.60
2019-01-30T00:09:48.371Z,92.70
2019-01-30T00:12:18.683Z,92.50
2019-01-30T00:14:49.021Z,92.70
2019-01-30T00:17:19.186Z,93.40
2019-01-30T00:19:49.569Z,92.90
2019-01-30T00:22:19.750Z,92.70
2019-01-30T00:24:49.918Z,92.80
2019-01-30T00:27:20.245Z,92.60
2019-01-30T00:29:50.519Z,92.70
2019-01-30T00:32:20.795Z,93.30
2019-01-30T00:34:51.057Z,93.10
2019-01-30T00:37:21.441Z,92.60
2019-01-30T00:39:51.654Z,92.80
2019-01-30T00:42:21.930Z,93.00
2019-01-30T00:44:52.251Z,92.60
2019-01-30T00:47:22.515Z,92.70
2019-01-30T00:49:52.703Z,92.90
2019-01-30T00:52:22.855Z,92.70
2019-01-30T00:54:53.115Z,92.50
2019-01-30T00:57:23.320Z,93.40
2019-01-30T00:59:53.612Z,92.70
2019-01-30T01:02:23.850Z,92.80
2019-01-30T01:04:54.102Z,92.60
2019-01-30T01:07:24.275Z,92.40
2019-01-30T01:09:54.568Z,92.90
2019-01-30T01:12:24.791Z,92.60
2019-01-30T01:14:55.184Z,92.60
2019-01-30T01:17:25.374Z,92.50
2019-01-30T01:19:55.722Z,92.40
2019-01-30T01:22:26.098Z,92.20
2019-01-30T01:24:56.339Z,93.30
2019-01-30T01:27:26.670Z,92.30
2019-01-30T01:29:56.826Z,92.20
2019-01-30T01:32:27.066Z,92.90
2019-01-30T01:34:57.281Z,92.50
2019-01-30T01:37:27.454Z,93.40
2019-01-30T01:39:57.727Z,94.00
2019-01-30T01:42:28.054Z,92.70
2019-01-30T01:44:58.210Z,93.00
2019-01-30T01:47:28.562Z,93.00
2019-01-30T01:49:58.711Z,93.00
2019-01-30T01:52:28.879Z,92.90
2019-01-30T01:54:59.043Z,92.80
2019-01-30T01:57:29.450Z,92.90
2019-01-30T01:59:59.656Z,92.90
2019-01-30T02:02:29.902Z,92.90
2019-01-30T02:05:00.268Z,92.70
2019-01-30T02:07:30.516Z,93.80
2019-01-30T02:10:00.783Z,92.70
2019-01-30T02:12:30.972Z,92.80
2019-01-30T02:15:01.433Z,92.60
2019-01-30T02:17:31.728Z,92.80
2019-01-30T02:20:02.078Z,93.30
2019-01-30T02:22:32.332Z,93.20
2019-01-30T02:25:02.583Z,93.10
2019-01-30T02:27:34.135Z,93.00
2019-01-30T02:30:06.633Z,93.30
2019-01-30T02:32:36.910Z,93.00
2019-01-30T02:35:07.429Z,92.80
2019-01-30T02:37:37.592Z,92.80
2019-01-30T02:40:09.610Z,93.20
2019-01-30T02:42:39.887Z,92.60
2019-01-30T02:45:11.763Z,93.00
2019-01-30T02:47:42.115Z,92.90
2019-01-30T02:50:14.766Z,93.00
2019-01-30T02:52:45.349Z,92.70
2019-01-30T02:55:16.533Z,92.70
2019-01-30T02:57:46.734Z,92.60
2019-01-30T03:00:23.000Z,92.90
2019-01-30T03:02:53.175Z,92.90
2019-01-30T03:05:23.768Z,92.70
2019-01-30T03:07:54.108Z,92.70
2019-01-30T03:10:24.518Z,92.50
2019-01-30T03:12:54.815Z,92.70
2019-01-30T03:15:25.189Z,92.50
2019-01-30T03:17:55.461Z,92.60
2019-01-30T03:20:26.757Z,92.70
2019-01-30T03:22:57.040Z,92.60
2019-01-30T03:25:27.410Z,93.00
2019-01-30T03:27:57.627Z,92.60
2019-01-30T03:30:29.960Z,92.60
2019-01-30T03:33:00.306Z,92.80
2019-01-30T03:35:30.724Z,92.60
2019-01-30T03:38:01.113Z,92.50
2019-01-30T03:40:31.470Z,92.50
2019-01-30T03:43:01.716Z,92.60
2019-01-30T03:45:31.883Z,93.60
2019-01-30T03:48:02.162Z,92.70
2019-01-30T03:50:32.351Z,92.40
2019-01-30T03:53:02.735Z,93.10
2019-01-30T03:55:33.005Z,92.60
2019-01-30T03:58:03.315Z,92.50
2019-01-30T04:00:33.582Z,92.40
2019-01-30T04:03:04.075Z,92.50
2019-01-30T04:05:34.290Z,92.20
2019-01-30T04:08:04.747Z,92.10
2019-01-30T04:10:34.955Z,92.10
2019-01-30T04:13:05.283Z,92.20
2019-01-30T04:15:35.650Z,92.60
2019-01-30T04:18:05.867Z,92.50
2019-01-30T04:20:36.013Z,92.40
2019-01-30T04:23:06.165Z,92.20
2019-01-30T04:25:36.416Z,92.20
2019-01-30T04:28:06.730Z,92.20
2019-01-30T04:30:36.948Z,92.30
2019-01-30T04:33:07.118Z,92.40
2019-01-30T04:35:37.473Z,92.40
2019-01-30T04:38:07.636Z,92.30
2019-01-30T04:40:37.906Z,92.10
2019-01-30T04:43:08.221Z,92.20
2019-01-30T04:45:38.395Z,92.30
2019-01-30T04:48:08.720Z,92.40
2019-01-30T04:50:39.062Z,92.50
2019-01-30T04:53:09.331Z,92.40
2019-01-30T04:55:39.458Z,92.40
2019-01-30T04:58:09.777Z,92.40
2019-01-30T05:00:40.088Z,93.00
2019-01-30T05:03:10.427Z,92.50
2019-01-30T05:05:40.547Z,92.30
2019-01-30T05:08:11.009Z,92.80
2019-01-30T05:10:41.166Z,92.50
2019-01-30T05:13:11.354Z,92.50
2019-01-30T05:15:41.724Z,92.50
2019-01-30T05:18:11.917Z,92.50
2019-01-30T05:20:42.194Z,93.10
2019-01-30T05:23:12.379Z,92.50
2019-01-30T05:25:42.743Z,92.40
2019-01-30T05:28:12.877Z,92.50
2019-01-30T05:30:43.046Z,92.40
2019-01-30T05:33:13.286Z,92.50
2019-01-30T05:35:43.552Z,92.60
2019-01-30T05:38:13.782Z,92.50
2019-01-30T05:40:44.168Z,92.60
2019-01-30T05:43:14.336Z,92.60
2019-01-30T05:45:44.602Z,92.50
2019-01-30T05:48:14.898Z,92.60
2019-01-30T05:50:45.114Z,92.50
2019-01-30T05:53:15.368Z,92.50
2019-01-30T05:55:45.664Z,92.60
2019-01-30T05:58:15.877Z,92.90
2019-01-30T06:00:46.062Z,92.90
2019-01-30T06:03:16.274Z,92.90
2019-01-30T06:05:46.483Z,93.30
2019-01-30T06:08:16.747Z,93.10
2019-01-30T06:10:47.102Z,93.10
2019-01-30T06:13:17.360Z,93.10
2019-01-30T06:15:47.613Z,93.20
2019-01-30T06:18:17.866Z,93.20
2019-01-30T06:20:48.138Z,93.20
2019-01-30T06:23:18.380Z,93.00
2019-01-30T06:25:48.775Z,93.10
2019-01-30T06:28:19.001Z,93.20
2019-01-30T06:30:49.319Z,93.30
2019-01-30T06:33:19.706Z,93.20
2019-01-30T06:35:50.123Z,93.20
2019-01-30T06:38:20.479Z,93.40
2019-01-30T06:40:50.757Z,93.40
2019-01-30T06:43:20.984Z,93.30
2019-01-30T06:45:51.276Z,93.50
2019-01-30T06:48:21.519Z,93.50
2019-01-30T06:50:51.751Z,93.70
2019-01-30T06:53:22.098Z,93.40
2019-01-30T06:55:52.274Z,93.40
2019-01-30T06:58:22.551Z,93.40
2019-01-30T07:00:52.934Z,93.50
2019-01-30T07:03:23.396Z,93.60
2019-01-30T07:05:53.661Z,93.60
2019-01-30T07:08:23.891Z,93.60
2019-01-30T07:10:54.195Z,93.60
2019-01-30T07:13:24.404Z,93.40
2019-01-30T07:15:54.614Z,93.70
2019-01-30T07:18:24.970Z,94.10
2019-01-30T07:20:55.149Z,93.70
2019-01-30T07:23:25.381Z,93.70
2019-01-30T07:25:55.700Z,93.80
2019-01-30T07:28:25.989Z,93.80
2019-01-30T07:30:56.297Z,93.70
2019-01-30T07:33:26.455Z,93.80
2019-01-30T07:35:56.773Z,93.60
2019-01-30T07:38:26.920Z,93.70
2019-01-30T07:40:57.155Z,93.80
2019-01-30T07:43:27.514Z,93.60
2019-01-30T07:45:57.697Z,93.10
2019-01-30T07:48:29.097Z,93.90
2019-01-30T07:50:59.667Z,94.30
2019-01-30T07:53:29.966Z,93.30
2019-01-30T07:56:00.265Z,94.90
2019-01-30T07:58:30.621Z,94.60
2019-01-30T08:01:01.069Z,94.60
2019-01-30T08:03:31.315Z,94.60
2019-01-30T08:06:01.724Z,93.60
2019-01-30T08:08:32.054Z,94.30
2019-01-30T08:11:02.239Z,93.70
2019-01-30T08:13:32.452Z,93.70
2019-01-30T08:16:02.909Z,93.70
2019-01-30T08:18:33.125Z,93.30
2019-01-30T08:21:03.337Z,93.40
2019-01-30T08:23:33.751Z,93.50
2019-01-30T08:26:04.265Z,93.40
2019-01-30T08:28:34.588Z,93.90
2019-01-30T08:31:04.917Z,93.10
2019-01-30T08:33:35.120Z,93.50
2019-01-30T08:36:05.507Z,93.90
2019-01-30T08:38:35.775Z,93.70
2019-01-30T08:41:06.031Z,93.70
2019-01-30T08:43:36.312Z,93.90
2019-01-30T08:46:06.553Z,94.20
2019-01-30T08:48:36.717Z,94.20
2019-01-30T08:51:07.213Z,92.40
2019-01-30T08:53:37.608Z,93.50
2019-01-30T08:56:07.870Z,92.80
2019-01-30T08:58:38.196Z,92.90
2019-01-30T09:01:08.475Z,93.40
2019-01-30T09:03:38.719Z,92.10
2019-01-30T09:06:08.993Z,93.90
2019-01-30T09:08:39.268Z,91.70
2019-01-30T09:11:09.427Z,93.40
2019-01-30T09:13:39.667Z,93.60
2019-01-30T09:16:09.946Z,94.60
2019-01-30T09:18:40.226Z,94.20
2019-01-30T09:21:10.420Z,94.20
2019-01-30T09:23:40.694Z,94.00
2019-01-30T09:26:10.934Z,94.40
2019-01-30T09:28:41.174Z,93.60
2019-01-30T09:31:11.583Z,92.70
2019-01-30T09:33:41.795Z,91.50
2019-01-30T09:36:11.973Z,92.20
2019-01-30T09:38:42.168Z,88.80
2019-01-30T09:41:12.512Z,91.40
2019-01-30T09:43:42.742Z,88.90
2019-01-30T09:46:13.162Z,90.40
2019-01-30T09:48:43.491Z,85.10
2019-01-30T09:51:13.772Z,90.50
2019-01-30T09:53:43.963Z,90.40
2019-01-30T09:56:15.613Z,93.10
2019-01-30T09:58:45.973Z,92.70
2019-01-30T10:01:16.372Z,93.70
2019-01-30T10:03:46.638Z,94.10
2019-01-30T10:06:16.794Z,94.00
2019-01-30T10:08:47.185Z,92.80
2019-01-30T10:11:17.461Z,91.40
2019-01-30T10:13:47.803Z,93.20
2019-01-30T10:16:18.002Z,90.10
2019-01-30T10:18:48.297Z,91.80
2019-01-30T10:21:18.470Z,92.50
2019-01-30T10:23:48.842Z,93.00
2019-01-30T10:26:19.163Z,92.60
2019-01-30T10:28:49.365Z,92.00
2019-01-30T10:31:19.771Z,92.00
2019-01-30T10:33:56.005Z,92.40
2019-01-30T10:36:26.487Z,84.60
2019-01-30T10:38:56.758Z,91.10
2019-01-30T10:41:27.002Z,79.90
2019-01-30T10:43:57.151Z,89.70
2019-01-30T10:46:27.431Z,86.70
2019-01-30T10:48:57.645Z,90.70
2019-01-30T10:51:27.901Z,92.30
2019-01-30T10:53:58.223Z,80.90
2019-01-30T10:56:28.577Z,87.10
2019-01-30T10:58:58.873Z,81.60
2019-01-30T11:01:29.175Z,84.30
2019-01-30T11:03:59.487Z,78.80
2019-01-30T11:06:29.669Z,87.80
2019-01-30T11:08:59.967Z,83.10
2019-01-30T11:11:30.174Z,78.20
2019-01-30T11:14:00.487Z,80.30
2019-01-30T11:16:30.660Z,88.60
2019-01-30T11:19:00.893Z,88.90
2019-01-30T11:21:31.102Z,86.70
2019-01-30T11:24:01.451Z,91.00
2019-01-30T11:26:31.767Z,87.00
2019-01-30T11:29:02.032Z,83.30
2019-01-30T11:31:32.255Z,87.10
2019-01-30T11:34:07.539Z,87.40
2019-01-30T11:36:34.484Z,82.60
2019-01-30T11:39:07.686Z,73.90
2019-01-30T11:41:37.952Z,74.40
2019-01-30T11:44:08.167Z,80.30
2019-01-30T11:46:38.548Z,83.90
2019-01-30T11:49:08.850Z,71.30
2019-01-30T11:51:39.161Z,64.30
2019-01-30T11:54:09.304Z,76.50
2019-01-30T11:56:39.727Z,69.30
2019-01-30T11:59:09.940Z,68.80
2019-01-30T12:01:40.257Z,70.60
2019-01-30T12:04:17.791Z,69.30
2019-01-30T12:06:42.397Z,78.60
2019-01-30T12:09:12.733Z,67.40
2019-01-30T12:11:42.974Z,67.40
2019-01-30T12:14:13.120Z,68.90
2019-01-30T12:16:43.398Z,73.80
2019-01-30T12:19:13.649Z,65.30
2019-01-30T12:21:43.828Z,70.50
2019-01-30T12:24:14.204Z,66.60
2019-01-30T12:26:44.585Z,71.20
2019-01-30T12:29:14.905Z,67.60
2019-01-30T12:31:45.196Z,66.30
2019-01-30T12:34:15.501Z,77.20
2019-01-30T12:36:45.737Z,69.10
2019-01-30T12:39:16.064Z,66.80
2019-01-30T12:41:46.225Z,69.50
2019-01-30T12:44:16.477Z,72.40
2019-01-30T12:46:46.796Z,66.70
2019-01-30T12:49:17.059Z,67.30
2019-01-30T12:51:47.366Z,68.50
2019-01-30T12:54:17.580Z,74.50
2019-01-30T12:56:47.843Z,66.90
2019-01-30T12:59:18.061Z,66.60
2019-01-30T13:01:48.378Z,71.50
2019-01-30T13:04:18.554Z,72.30
2019-01-30T13:06:48.836Z,73.70
2019-01-30T13:09:19.128Z,68.40
2019-01-30T13:11:49.345Z,77.60
2019-01-30T13:14:19.592Z,72.40
2019-01-30T13:16:49.899Z,73.00
2019-01-30T13:19:20.090Z,70.20
2019-01-30T13:21:50.268Z,74.60
2019-01-30T13:24:20.512Z,71.40
2019-01-30T13:26:50.826Z,75.50
2019-01-30T13:29:20.998Z,76.10
2019-01-30T13:31:51.304Z,76.70
2019-01-30T13:34:21.656Z,76.20
2019-01-30T13:36:51.882Z,71.30
2019-01-30T13:39:22.198Z,70.70
2019-01-30T13:41:52.745Z,80.30
2019-01-30T13:44:23.133Z,76.00
2019-01-30T13:46:53.480Z,77.80
2019-01-30T13:49:23.723Z,76.90
2019-01-30T13:51:54.116Z,71.70
2019-01-30T13:54:24.365Z,72.10
2019-01-30T13:56:54.750Z,73.50
2019-01-30T13:59:24.961Z,72.50
2019-01-30T14:01:55.371Z,75.10
2019-01-30T14:04:25.628Z,74.30
2019-01-30T14:06:55.938Z,73.90
2019-01-30T14:09:26.130Z,72.80
2019-01-30T14:11:56.433Z,78.90
2019-01-30T14:14:26.753Z,78.10
2019-01-30T14:16:57.182Z,73.00
2019-01-30T14:19:27.607Z,76.00
2019-01-30T14:21:57.881Z,77.40
2019-01-30T14:24:28.177Z,75.40
2019-01-30T14:26:58.404Z,74.30
2019-01-30T14:29:28.671Z,74.10
2019-01-30T14:31:58.935Z,73.50
2019-01-30T14:34:29.306Z,75.40
2019-01-30T14:36:59.577Z,78.50
2019-01-30T14:39:29.961Z,75.30
2019-01-30T14:42:00.314Z,77.50
2019-01-30T14:44:30.643Z,78.50
2019-01-30T14:47:00.811Z,75.20
2019-01-30T14:49:31.202Z,75.60
2019-01-30T14:52:01.552Z,77.30
2019-01-30T14:54:35.486Z,76.00
2019-01-30T14:57:06.044Z,76.70
2019-01-30T14:59:36.427Z,75.40
2019-01-30T15:02:06.751Z,76.70
2019-01-30T15:04:37.064Z,78.60
2019-01-30T15:07:07.422Z,77.30
2019-01-30T15:09:37.657Z,79.20
2019-01-30T15:12:08.079Z,76.30
2019-01-30T15:14:38.282Z,76.90
2019-01-30T15:17:08.588Z,76.80
2019-01-30T15:19:38.853Z,77.70
2019-01-30T15:22:09.135Z,77.70
2019-01-30T15:24:39.477Z,81.30
2019-01-30T15:27:09.657Z,81.50
2019-01-30T15:29:39.805Z,75.90
2019-01-30T15:32:10.002Z,81.00
2019-01-30T15:34:40.261Z,79.10
2019-01-30T15:37:10.547Z,76.80
2019-01-30T15:39:40.839Z,75.60
2019-01-30T15:42:11.049Z,81.00
2019-01-30T15:44:41.262Z,78.50
2019-01-30T15:47:11.479Z,93.70
2019-01-30T15:49:41.803Z,83.90
2019-01-30T15:52:12.079Z,88.00
2019-01-30T15:54:42.282Z,83.90
2019-01-30T15:57:12.572Z,76.60
2019-01-30T15:59:42.917Z,85.20
2019-01-30T16:02:13.189Z,75.80
2019-01-30T16:04:43.425Z,75.40
2019-01-30T16:07:13.807Z,77.20
2019-01-30T16:09:43.972Z,80.50
2019-01-30T16:12:14.272Z,79.50
2019-01-30T16:14:44.425Z,79.60
2019-01-30T16:17:14.768Z,79.40
2019-01-30T16:19:45.013Z,75.50
2019-01-30T16:22:15.343Z,75.60
2019-01-30T16:24:45.750Z,80.40
2019-01-30T16:27:16.022Z,77.00
2019-01-30T16:29:46.186Z,80.90
2019-01-30T16:32:16.708Z,77.50
2019-01-30T16:34:46.993Z,82.70
2019-01-30T16:37:17.244Z,77.50
2019-01-30T16:39:47.594Z,82.10
2019-01-30T16:42:17.854Z,79.20
2019-01-30T16:44:48.122Z,81.10
2019-01-30T16:47:18.471Z,79.60
2019-01-30T16:49:48.789Z,82.20
2019-01-30T16:52:18.996Z,83.10
2019-01-30T16:54:49.288Z,77.20
2019-01-30T16:57:19.467Z,81.20
2019-01-30T16:59:49.808Z,80.60
2019-01-30T17:02:20.065Z,80.80
2019-01-30T17:04:50.310Z,81.50
2019-01-30T17:07:20.588Z,80.40
2019-01-30T17:09:50.867Z,82.50
2019-01-30T17:12:21.044Z,79.70
2019-01-30T17:14:51.221Z,79.60
2019-01-30T17:17:21.484Z,84.40
2019-01-30T17:19:51.773Z,81.50
2019-01-30T17:22:22.145Z,78.60
2019-01-30T17:24:52.489Z,83.50
2019-01-30T17:27:22.809Z,81.80
2019-01-30T17:29:53.105Z,78.40
2019-01-30T17:32:23.378Z,82.90
2019-01-30T17:34:53.635Z,83.90
2019-01-30T17:37:23.841Z,79.70
2019-01-30T17:39:54.143Z,77.90
2019-01-30T17:42:24.482Z,80.60
2019-01-30T17:44:54.749Z,80.60
2019-01-30T17:47:24.960Z,83.10
2019-01-30T17:49:55.183Z,79.10
2019-01-30T17:52:25.419Z,84.90
2019-01-30T17:54:55.822Z,82.40
2019-01-30T17:57:26.048Z,84.20
2019-01-30T17:59:56.375Z,79.20
2019-01-30T18:02:26.616Z,84.90
2019-01-30T18:04:59.251Z,83.20
2019-01-30T18:07:28.872Z,81.50
2019-01-30T18:09:59.053Z,85.40
2019-01-30T18:12:29.376Z,84.30
2019-01-30T18:14:59.533Z,80.70
2019-01-30T18:17:29.856Z,83.50
2019-01-30T18:20:00.093Z,82.00
2019-01-30T18:22:30.574Z,83.50
2019-01-30T18:25:00.879Z,82.70
2019-01-30T18:27:31.089Z,83.80
2019-01-30T18:30:01.379Z,82.90
2019-01-30T18:32:31.571Z,84.40
2019-01-30T18:35:01.927Z,85.90
2019-01-30T18:37:32.260Z,84.60
2019-01-30T18:40:02.601Z,83.60
2019-01-30T18:42:32.898Z,84.70
2019-01-30T18:45:03.249Z,84.90
2019-01-30T18:47:33.442Z,84.20
2019-01-30T18:50:04.717Z,86.60
2019-01-30T18:52:34.980Z,84.40
2019-01-30T18:55:06.362Z,85.20
2019-01-30T18:57:36.529Z,83.20
2019-01-30T19:00:14.724Z,84.60
2019-01-30T19:02:44.872Z,84.50
2019-01-30T19:05:15.383Z,81.30
2019-01-30T19:07:45.706Z,82.30
2019-01-30T19:10:16.475Z,83.40
2019-01-30T19:12:46.669Z,83.10
2019-01-30T19:15:18.956Z,83.40
2019-01-30T19:17:49.474Z,86.10
2019-01-30T19:20:31.306Z,85.20
2019-01-30T19:23:01.678Z,85.40
2019-01-30T19:25:31.877Z,83.10
2019-01-30T19:28:02.379Z,83.90
2019-01-30T19:30:33.139Z,85.30
2019-01-30T19:33:03.593Z,85.00
2019-01-30T19:35:33.829Z,82.40
2019-01-30T19:38:04.184Z,82.60
2019-01-30T19:40:34.524Z,84.90
2019-01-30T19:43:05.151Z,84.50
2019-01-30T19:45:35.437Z,85.30
2019-01-30T19:48:07.023Z,84.00
2019-01-30T19:50:37.357Z,83.70
2019-01-30T19:53:08.565Z,83.40
2019-01-30T19:55:39.017Z,84.90
2019-01-30T19:58:12.075Z,82.20
2019-01-30T20:00:44.219Z,82.30
2019-01-30T20:03:23.095Z,84.90
2019-01-30T20:05:53.317Z,81.50
2019-01-30T20:08:23.664Z,84.70
2019-01-30T20:10:54.126Z,82.00
2019-01-30T20:13:24.531Z,82.60
2019-01-30T20:15:54.826Z,82.90
2019-01-30T20:18:25.145Z,81.40
2019-01-30T20:20:55.444Z,81.80
2019-01-30T20:23:25.802Z,83.80
2019-01-30T20:25:56.189Z,80.40
2019-01-30T20:28:26.582Z,82.70
2019-01-30T20:30:57.056Z,82.80
2019-01-30T20:33:27.330Z,81.90
2019-01-30T20:35:57.659Z,82.40
2019-01-30T20:38:27.988Z,82.60
2019-01-30T20:40:58.346Z,78.60
2019-01-30T20:43:28.587Z,79.70
2019-01-30T20:45:58.915Z,80.90
2019-01-30T20:48:29.163Z,82.00
2019-01-30T20:50:59.435Z,82.10
2019-01-30T20:53:29.683Z,83.70
2019-01-30T20:55:59.863Z,79.10
2019-01-30T20:58:30.131Z,82.20
2019-01-30T21:01:00.386Z,80.70
2019-01-30T21:03:30.828Z,78.00
2019-01-30T21:06:01.254Z,80.90
2019-01-30T21:08:31.513Z,83.00
2019-01-30T21:11:01.800Z,82.10
2019-01-30T21:13:32.075Z,81.50
2019-01-30T21:16:02.356Z,81.50
2019-01-30T21:18:32.746Z,81.60
2019-01-30T21:21:02.989Z,82.10
2019-01-30T21:23:33.366Z,83.70
2019-01-30T21:26:03.578Z,82.90
2019-01-30T21:28:33.997Z,83.80
2019-01-30T21:31:04.277Z,83.90
2019-01-30T21:33:35.390Z,83.70
2019-01-30T21:36:05.659Z,85.20
2019-01-30T21:38:36.094Z,84.90
2019-01-30T21:41:06.528Z,85.70
2019-01-30T21:43:36.825Z,84.90
2019-01-30T21:46:07.265Z,85.10
2019-01-30T21:48:37.568Z,86.30
2019-01-30T21:51:07.811Z,86.00
2019-01-30T21:53:38.139Z,86.70
2019-01-30T21:56:09.938Z,86.00
2019-01-30T21:58:40.340Z,86.20
2019-01-30T22:01:10.644Z,85.80
2019-01-30T22:03:41.024Z,86.20
2019-01-30T22:06:11.352Z,86.10
2019-01-30T22:08:41.631Z,87.40
2019-01-30T22:11:11.944Z,86.60
2019-01-30T22:13:42.147Z,86.40
2019-01-30T22:16:12.442Z,85.90
2019-01-30T22:18:42.691Z,85.40
2019-01-30T22:21:12.989Z,86.60
2019-01-30T22:23:43.411Z,87.30
2019-01-30T22:26:13.702Z,87.50
2019-01-30T22:28:43.898Z,86.60
2019-01-30T22:31:14.159Z,86.30
2019-01-30T22:33:44.471Z,86.20
2019-01-30T22:36:14.745Z,86.20
2019-01-30T22:38:45.035Z,86.40
2019-01-30T22:41:15.366Z,86.00
2019-01-30T22:43:45.685Z,86.80
2019-01-30T22:46:16.087Z,87.20
2019-01-30T22:48:46.289Z,86.80
2019-01-30T22:51:16.655Z,88.00
2019-01-30T22:53:46.908Z,89.00
2019-01-30T22:56:17.325Z,90.20
2019-01-30T22:58:47.647Z,89.30
2019-01-30T23:01:43.775Z,89.70
2019-01-30T23:05:00.326Z,88.40
2019-01-30T23:07:52.025Z,87.30
2019-01-30T23:10:53.207Z,87.80
2019-01-30T23:14:02.544Z,87.50
2019-01-30T23:17:30.896Z,86.80
2019-01-30T23:20:14.064Z,86.60
2019-01-30T23:23:20.532Z,86.70
2019-01-30T23:26:04.719Z,87.30
2019-01-30T23:29:32.770Z,86.20
2019-01-30T23:32:25.929Z,86.40
2019-01-30T23:35:24.041Z,86.70
2019-01-30T23:38:44.825Z,86.40
2019-01-30T23:41:49.120Z,87.70
2019-01-30T23:44:25.012Z,88.40
2019-01-30T23:47:39.844Z,89.00
2019-01-30T23:50:40.778Z,87.50
2019-01-30T23:53:52.217Z,86.90
2019-01-30T23:57:05.087Z,88.00
